Time,TemperatureF,DewpointF,PressureIn,WindDirection,WindDirectionDegrees,WindSpeedMPH,WindSpeedGustMPH,Humidity,HourlyPrecipIn,Conditions,Clouds,dailyrainin,SoftwareType,DateUTC
2013-09-02 00:14:00,73.0,68.0,29.79,East,90,0.0,0.0,85,0.00,,,0.00,,2013-09-02 04:14:00,
2013-09-02 00:54:00,71.0,68.0,29.84,NW,315,2.0,6.0,89,0.00,,,0.00,,2013-09-02 04:54:00,
2013-09-02 01:13:00,71.0,68.0,29.81,NW,315,0.0,1.0,89,0.00,,,0.00,,2013-09-02 05:13:00,
2013-09-02 01:23:00,70.0,67.0,29.79,NW,315,0.0,0.0,90,0.00,,,0.00,,2013-09-02 05:23:00,
2013-09-02 01:52:00,70.0,67.0,29.80,NW,315,0.0,0.0,91,0.00,,,0.00,,2013-09-02 05:52:00,
2013-09-02 02:22:00,69.0,66.0,29.81,NW,315,0.0,0.0,91,0.00,,,0.00,,2013-09-02 06:22:00,
2013-09-02 02:43:00,69.0,66.0,29.81,NW,315,0.0,0.0,91,0.00,,,0.00,,2013-09-02 06:43:00,
2013-09-02 02:52:00,69.0,66.0,29.78,NW,315,0.0,0.0,91,0.00,,,0.00,,2013-09-02 06:52:00,
2013-09-02 03:11:00,69.0,66.0,29.78,NW,315,0.0,0.0,91,0.00,,,0.00,,2013-09-02 07:11:00,
2013-09-02 03:21:00,68.0,66.0,29.78,NW,315,0.0,0.0,92,0.00,,,0.00,,2013-09-02 07:21:00,
2013-09-02 03:52:00,68.0,66.0,29.78,NW,315,0.0,0.0,92,0.00,,,0.00,,2013-09-02 07:52:00,
2013-09-02 04:22:00,67.0,65.0,29.78,NW,315,0.0,0.0,92,0.00,,,0.00,,2013-09-02 08:22:00,
2013-09-02 04:52:00,67.0,65.0,29.78,NW,315,0.0,0.0,92,0.00,,,0.00,,2013-09-02 08:52:00,
2013-09-02 05:22:00,67.0,65.0,29.78,NW,315,0.0,0.0,92,0.00,,,0.00,,2013-09-02 09:22:00,
2013-09-02 05:53:00,66.0,64.0,29.78,NW,315,0.0,0.0,92,0.00,,,0.00,,2013-09-02 09:53:00,
2013-09-02 06:23:00,66.0,63.0,29.78,NW,315,0.0,0.0,91,0.00,,,0.00,,2013-09-02 10:23:00,
2013-09-02 06:53:00,66.0,64.0,29.79,NW,315,0.0,0.0,92,0.00,,,0.00,,2013-09-02 10:53:00,
2013-09-02 07:11:00,66.0,64.0,29.79,NW,315,0.0,0.0,92,0.00,,,0.00,,2013-09-02 11:11:00,
2013-09-02 07:22:00,66.0,64.0,29.78,NW,315,0.0,0.0,92,0.00,,,0.00,,2013-09-02 11:22:00,
2013-09-02 07:52:00,67.0,65.0,29.78,NW,315,0.0,0.0,93,0.00,,,0.00,,2013-09-02 11:52:00,
2013-09-02 08:21:00,67.0,65.0,29.79,NW,315,0.0,0.0,93,0.00,,,0.00,,2013-09-02 12:21:00,
2013-09-02 08:52:00,67.0,65.0,29.80,NW,315,0.0,0.0,93,0.00,,,0.00,,2013-09-02 12:52:00,
2013-09-02 09:11:00,68.0,66.0,29.79,NW,315,0.0,0.0,93,0.00,,,0.00,,2013-09-02 13:11:00,
2013-09-02 09:22:00,68.0,66.0,29.79,NW,315,0.0,0.0,93,0.00,,,0.00,,2013-09-02 13:22:00,
2013-09-02 09:52:00,69.0,67.0,29.80,NW,315,0.0,0.0,93,0.00,,,0.00,,2013-09-02 13:52:00,
2013-09-02 10:11:00,69.0,67.0,29.79,NW,315,0.0,0.0,92,0.00,,,0.00,,2013-09-02 14:11:00,
2013-09-02 10:22:00,69.0,67.0,29.80,NW,315,0.0,0.0,92,0.00,,,0.00,,2013-09-02 14:22:00,
2013-09-02 10:52:00,70.0,68.0,29.79,NW,315,0.0,0.0,92,0.00,,,0.00,,2013-09-02 14:52:00,
2013-09-02 11:23:00,71.0,68.0,29.80,NW,315,0.0,0.0,91,0.00,,,0.00,,2013-09-02 15:23:00,
2013-09-02 11:55:00,73.0,70.0,29.80,SW,225,1.0,2.0,90,0.00,,,0.00,,2013-09-02 15:55:00,
2013-09-02 12:24:00,74.0,70.0,29.80,WSW,248,1.0,3.0,87,0.00,,,0.00,,2013-09-02 16:24:00,
2013-09-02 12:53:00,75.0,70.0,29.79,SSW,202,2.0,3.0,84,0.00,,,0.00,,2013-09-02 16:53:00,
2013-09-02 13:23:00,78.0,72.0,29.78,South,180,2.0,5.0,81,0.00,,,0.00,,2013-09-02 17:23:00,
2013-09-02 13:52:00,78.0,71.0,29.77,SE,135,1.0,6.0,79,0.00,,,0.00,,2013-09-02 17:52:00,
2013-09-02 14:13:00,78.0,71.0,29.77,WSW,248,0.0,2.0,79,0.00,,,0.00,,2013-09-02 18:13:00,
2013-09-02 14:22:00,78.0,71.0,29.76,West,270,1.0,2.0,79,0.00,,,0.00,,2013-09-02 18:22:00,
2013-09-02 14:52:00,81.0,71.0,29.77,SW,225,3.0,7.0,71,0.00,,,0.00,,2013-09-02 18:52:00,
2013-09-02 15:12:00,82.0,71.0,29.77,ESE,112,3.0,7.0,70,0.00,,,0.00,,2013-09-02 19:12:00,
2013-09-02 15:22:00,82.0,71.0,29.77,WSW,248,1.0,7.0,70,0.00,,,0.00,,2013-09-02 19:22:00,
2013-09-02 15:52:00,84.0,72.0,29.75,WSW,248,1.0,2.0,67,0.00,,,0.00,,2013-09-02 19:52:00,
2013-09-02 16:22:00,84.0,71.0,29.76,NE,45,2.0,5.0,65,0.00,,,0.00,,2013-09-02 20:22:00,
2013-09-02 16:52:00,85.0,71.0,29.77,West,270,2.0,6.0,64,0.00,,,0.00,,2013-09-02 20:52:00,
2013-09-02 17:23:00,86.0,71.0,29.76,West,270,2.0,5.0,62,0.00,,,0.00,,2013-09-02 21:23:00,
2013-09-02 17:55:00,84.0,71.0,29.78,South,180,2.0,5.0,65,0.00,,,0.00,,2013-09-02 21:55:00,
2013-09-02 18:24:00,82.0,70.0,29.71,SW,225,1.0,3.0,68,0.00,,,0.00,,2013-09-02 22:24:00,
2013-09-02 18:54:00,81.0,71.0,29.71,West,270,0.0,1.0,71,0.00,,,0.00,,2013-09-02 22:54:00,
2013-09-02 19:22:00,80.0,72.0,29.70,WSW,248,1.0,7.0,76,0.00,,,0.00,,2013-09-02 23:22:00,
2013-09-02 19:53:00,78.0,68.0,29.71,SW,225,7.0,16.0,71,0.00,,,0.00,,2013-09-02 23:53:00,
2013-09-02 20:12:00,77.0,67.0,29.71,West,270,6.0,12.0,72,0.00,,,0.00,,2013-09-03 00:12:00,
2013-09-02 20:22:00,76.0,66.0,29.72,West,270,4.0,12.0,71,0.00,,,0.00,,2013-09-03 00:22:00,
2013-09-02 20:42:00,75.0,65.0,29.72,WSW,248,3.0,6.0,70,0.00,,,0.00,,2013-09-03 00:42:00,
2013-09-02 20:52:00,74.0,64.0,29.73,WSW,248,2.0,6.0,70,0.00,,,0.00,,2013-09-03 00:52:00,
2013-09-02 21:11:00,74.0,64.0,29.72,WNW,292,2.0,3.0,71,0.00,,,0.00,,2013-09-03 01:11:00,
2013-09-02 21:22:00,73.0,63.0,29.70,NNW,338,0.0,2.0,72,0.00,,,0.00,,2013-09-03 01:22:00,
2013-09-02 21:42:00,72.0,64.0,29.70,NNW,338,1.0,2.0,76,0.00,,,0.00,,2013-09-03 01:42:00,
2013-09-02 21:52:00,72.0,65.0,29.72,West,270,2.0,2.0,78,0.00,,,0.00,,2013-09-03 01:52:00,
2013-09-02 22:12:00,72.0,65.0,29.74,West,270,1.0,2.0,79,0.00,,,0.00,,2013-09-03 02:12:00,
2013-09-02 22:21:00,72.0,65.0,29.74,West,270,1.0,2.0,79,0.00,,,0.00,,2013-09-03 02:21:00,
2013-09-02 22:42:00,72.0,65.0,29.74,SW,225,1.0,2.0,79,0.00,,,0.00,,2013-09-03 02:42:00,
2013-09-02 22:52:00,71.0,64.0,29.75,WSW,248,1.0,2.0,78,0.00,,,0.00,,2013-09-03 02:52:00,
2013-09-02 23:23:00,71.0,63.0,29.77,West,270,0.0,2.0,77,0.00,,,0.00,,2013-09-03 03:23:00,
2013-09-02 23:55:00,70.0,62.0,29.76,NW,315,1.0,3.0,77,0.00,,,0.00,,2013-09-03 03:55:00,